Time;durP1;ratioP1;P1;durP2;ratioP2;P2;SDS_P1;SDS_P2;PMS_P1;PMS_P2;Temp;Humidity;BMP_temperature;BMP_pressure;BME280_temperature;BME280_humidity;BME280_pressure;Samples;Min_cycle;Max_cycle;Signal;HPM_P1;HPM_P2
2023/12/07 00:00:41;;;;;;;13.80;6.80;;;2.30;99.90;;;;;;5037776;28;20871;-75
2023/12/07 00:03:09;;;;;;;12.30;5.97;;;2.30;99.90;;;;;;5035860;28;21343;-74
2023/12/07 00:05:37;;;;;;;11.83;5.93;;;2.30;99.90;;;;;;5036829;28;20461;-74
2023/12/07 00:08:05;;;;;;;13.10;5.87;;;2.40;99.90;;;;;;5041580;28;20444;-74
2023/12/07 00:10:34;;;;;;;14.00;7.07;;;2.40;99.90;;;;;;5040724;28;20440;-74
2023/12/07 00:13:03;;;;;;;13.83;6.37;;;2.50;99.90;;;;;;5038581;28;21308;-75
2023/12/07 00:15:31;;;;;;;12.47;6.13;;;2.60;99.90;;;;;;5041941;28;20443;-74
2023/12/07 00:18:00;;;;;;;12.30;5.53;;;2.60;99.90;;;;;;5041579;28;20454;-73
2023/12/07 00:20:28;;;;;;;12.13;5.83;;;2.70;99.90;;;;;;5039230;28;21231;-74
2023/12/07 00:22:56;;;;;;;12.33;5.73;;;2.70;99.90;;;;;;5047181;28;20493;-72
2023/12/07 00:25:24;;;;;;;15.30;7.20;;;2.70;99.90;;;;;;5046331;28;20491;-74
2023/12/07 00:27:54;;;;;;;12.73;6.40;;;2.60;99.90;;;;;;5045920;28;20459;-72
2023/12/07 00:30:22;;;;;;;14.73;6.87;;;2.50;99.90;;;;;;5044772;28;20459;-71
2023/12/07 00:32:50;;;;;;;12.77;6.60;;;2.50;99.90;;;;;;5047644;28;20517;-73
2023/12/07 00:35:21;;;;;;;16.53;7.10;;;2.40;99.90;;;;;;5046429;28;20463;-73
2023/12/07 00:37:50;;;;;;;17.73;6.97;;;2.40;99.90;;;;;;5046529;28;20940;-74
2023/12/07 00:40:18;;;;;;;15.43;8.07;;;2.40;99.90;;;;;;5055012;28;20456;-73
2023/12/07 00:42:46;;;;;;;13.97;6.43;;;2.40;99.90;;;;;;5046562;28;20491;-74
2023/12/07 00:45:15;;;;;;;15.60;7.33;;;2.50;99.90;;;;;;5046244;28;20440;-74
2023/12/07 00:47:43;;;;;;;12.97;6.30;;;2.50;99.90;;;;;;5047021;28;20517;-74
2023/12/07 00:50:14;;;;;;;14.60;6.20;;;2.60;99.90;;;;;;5047514;28;20459;-73
2023/12/07 00:52:42;;;;;;;11.00;6.00;;;2.60;99.90;;;;;;5045817;28;20460;-74
2023/12/07 00:55:10;;;;;;;12.00;5.80;;;2.80;99.90;;;;;;5050190;28;20447;-73
2023/12/07 00:57:40;;;;;;;13.20;6.30;;;2.90;99.90;;;;;;5050357;28;20912;-74
2023/12/07 01:00:10;;;;;;;12.73;5.13;;;2.80;99.90;;;;;;5042355;28;20444;-73
2023/12/07 01:02:39;;;;;;;11.83;6.00;;;2.80;99.90;;;;;;5055911;28;20487;-75
2023/12/07 01:05:08;;;;;;;12.80;6.13;;;2.80;99.90;;;;;;5047598;28;20448;-74
2023/12/07 01:07:36;;;;;;;11.80;5.40;;;2.70;99.90;;;;;;5046138;28;20454;-73
2023/12/07 01:10:05;;;;;;;13.30;6.10;;;2.70;99.90;;;;;;5036800;28;20548;-74
2023/12/07 01:12:35;;;;;;;12.93;6.70;;;2.70;99.90;;;;;;5039656;28;20504;-74
2023/12/07 01:15:04;;;;;;;16.40;7.73;;;2.70;99.90;;;;;;5043510;28;20470;-76
2023/12/07 01:17:32;;;;;;;16.67;8.90;;;2.70;99.90;;;;;;5040340;28;20460;-73
2023/12/07 01:20:03;;;;;;;20.07;9.30;;;2.70;99.90;;;;;;5044735;28;20444;-75
2023/12/07 01:22:31;;;;;;;16.13;8.30;;;2.60;99.90;;;;;;5045013;28;20498;-75
2023/12/07 01:24:59;;;;;;;19.30;9.10;;;2.70;99.90;;;;;;5044895;28;21326;-76
2023/12/07 01:27:27;;;;;;;16.17;8.27;;;2.60;99.90;;;;;;5041708;28;20460;-74
2023/12/07 01:29:56;;;;;;;21.13;9.73;;;2.50;99.90;;;;;;5045759;28;20440;-75
2023/12/07 01:32:24;;;;;;;14.27;7.90;;;2.70;99.90;;;;;;5043614;28;20542;-74
2023/12/07 01:34:52;;;;;;;19.20;8.43;;;2.70;99.90;;;;;;5045328;28;20443;-74
2023/12/07 01:37:21;;;;;;;18.53;7.87;;;2.70;99.90;;;;;;5042252;28;20534;-75
2023/12/07 01:39:50;;;;;;;18.20;9.93;;;2.60;99.90;;;;;;5045127;28;20447;-76
2023/12/07 01:42:18;;;;;;;22.03;10.40;;;2.60;99.90;;;;;;5044406;28;20857;-75
2023/12/07 01:44:45;;;;;;;19.60;10.30;;;2.50;99.90;;;;;;5040879;28;20502;-74
2023/12/07 01:47:16;;;;;;;17.27;7.80;;;2.40;99.90;;;;;;5045708;28;20458;-76
2023/12/07 01:49:45;;;;;;;16.97;9.33;;;2.40;99.90;;;;;;5052586;28;20530;-75
2023/12/07 01:52:13;;;;;;;16.80;9.70;;;2.40;99.90;;;;;;5043269;28;20990;-73
2023/12/07 01:54:43;;;;;;;16.00;8.40;;;2.40;99.90;;;;;;5036633;28;20448;-74
2023/12/07 01:57:11;;;;;;;13.70;8.00;;;2.50;99.90;;;;;;5044577;28;20492;-74
2023/12/07 01:59:39;;;;;;;16.97;8.43;;;2.50;99.90;;;;;;5045277;28;20465;-74
2023/12/07 02:02:07;;;;;;;16.67;7.70;;;2.50;99.90;;;;;;5044503;28;20519;-75
2023/12/07 02:04:36;;;;;;;16.37;8.50;;;2.50;99.90;;;;;;5044151;28;20440;-74
2023/12/07 02:07:05;;;;;;;16.80;8.27;;;2.60;99.90;;;;;;5041048;28;20443;-74
2023/12/07 02:09:33;;;;;;;18.30;8.60;;;2.50;99.90;;;;;;5046252;28;20819;-74
2023/12/07 02:12:02;;;;;;;15.53;8.27;;;2.60;99.90;;;;;;5045528;28;20589;-74
2023/12/07 02:14:30;;;;;;;14.63;8.17;;;2.60;99.90;;;;;;5040485;28;20558;-76
2023/12/07 02:17:04;;;;;;;16.27;6.63;;;2.70;99.90;;;;;;5046414;28;20452;-74
2023/12/07 02:19:50;;;;;;;15.33;7.47;;;2.70;99.90;;;;;;5040035;28;20547;-73
2023/12/07 02:22:29;;;;;;;18.30;8.27;;;2.60;99.90;;;;;;5044477;28;20476;-73
2023/12/07 02:25:08;;;;;;;15.47;7.80;;;2.60;99.90;;;;;;5044557;28;20467;-74
2023/12/07 02:27:39;;;;;;;15.03;7.73;;;2.40;99.90;;;;;;5045112;28;20545;-73
2023/12/07 02:30:09;;;;;;;16.47;8.27;;;2.30;99.90;;;;;;5045132;28;21047;-73
2023/12/07 02:32:37;;;;;;;17.13;8.70;;;2.30;99.90;;;;;;5045257;28;20460;-74
2023/12/07 02:35:07;;;;;;;14.93;7.60;;;2.10;99.90;;;;;;5043304;28;20524;-76
2023/12/07 02:37:38;;;;;;;20.57;8.30;;;1.90;99.90;;;;;;5045051;28;21016;-74
2023/12/07 02:40:10;;;;;;;12.90;7.03;;;1.80;99.90;;;;;;5042247;28;20463;-73
2023/12/07 02:42:42;;;;;;;16.63;8.60;;;1.80;99.90;;;;;;5048978;28;20524;-74
2023/12/07 02:45:11;;;;;;;17.03;8.87;;;1.60;99.90;;;;;;5048615;28;20446;-74
2023/12/07 02:47:39;;;;;;;17.57;9.73;;;1.60;99.90;;;;;;5039512;28;20570;-74
2023/12/07 02:50:09;;;;;;;19.60;9.37;;;1.60;99.90;;;;;;5045607;28;20498;-73
2023/12/07 02:52:37;;;;;;;20.23;10.23;;;1.60;99.90;;;;;;5045193;28;20468;-74
2023/12/07 02:55:07;;;;;;;16.10;7.87;;;1.70;99.90;;;;;;5047332;28;20495;-73
2023/12/07 02:57:35;;;;;;;18.13;10.07;;;1.70;99.90;;;;;;5045346;28;20459;-74
2023/12/07 03:00:07;;;;;;;18.47;8.27;;;1.70;99.90;;;;;;5045766;28;20491;-74
2023/12/07 03:02:35;;;;;;;19.40;8.57;;;1.60;99.90;;;;;;5044554;28;20510;-73
2023/12/07 03:05:05;;;;;;;19.47;9.67;;;1.50;99.90;;;;;;5044219;28;20458;-73
2023/12/07 03:07:33;;;;;;;17.83;8.93;;;1.40;99.90;;;;;;5055783;28;20467;-74
2023/12/07 03:10:02;;;;;;;17.00;8.10;;;1.30;99.90;;;;;;5050867;28;20547;-74
2023/12/07 03:12:30;;;;;;;24.33;9.37;;;1.20;99.90;;;;;;5038230;28;21093;-74
2023/12/07 03:14:58;;;;;;;16.37;8.10;;;1.20;99.90;;;;;;5039380;28;20464;-73
2023/12/07 03:17:27;;;;;;;16.87;8.73;;;1.10;99.90;;;;;;5040312;28;20498;-74
2023/12/07 03:19:55;;;;;;;17.53;9.30;;;1.00;99.90;;;;;;5036944;28;20459;-73
2023/12/07 03:22:24;;;;;;;21.23;9.10;;;1.00;99.90;;;;;;5043597;28;20555;-74
2023/12/07 03:24:53;;;;;;;16.92;9.82;;;1.00;99.90;;;;;;5043514;28;20511;-73
2023/12/07 03:27:21;;;;;;;18.20;9.23;;;0.90;99.90;;;;;;5039970;28;20217;-75
2023/12/07 03:29:51;;;;;;;16.00;7.67;;;0.90;99.90;;;;;;5044684;28;20508;-74
2023/12/07 03:32:19;;;;;;;15.70;8.85;;;0.70;99.90;;;;;;5043034;28;20472;-73
2023/12/07 03:34:48;;;;;;;18.80;10.10;;;0.60;99.90;;;;;;5046840;28;20697;-73
2023/12/07 03:37:17;;;;;;;20.40;8.98;;;0.60;99.90;;;;;;5046919;28;20220;-77
2023/12/07 03:39:45;;;;;;;16.55;8.73;;;0.80;99.90;;;;;;5047063;28;20285;-73
2023/12/07 03:42:13;;;;;;;16.00;8.20;;;0.70;99.90;;;;;;5045859;28;20657;-73
2023/12/07 03:45:01;;;;;;;16.73;8.40;;;0.60;99.90;;;;;;5047979;28;20210;-72
2023/12/07 03:47:29;;;;;;;16.02;7.55;;;0.40;99.90;;;;;;5047774;28;20225;-73
2023/12/07 03:49:58;;;;;;;13.75;7.88;;;0.20;99.90;;;;;;5054621;28;20260;-73
2023/12/07 03:52:26;;;;;;;16.17;7.68;;;0.20;99.90;;;;;;5047960;28;20223;-73
2023/12/07 03:54:55;;;;;;;13.90;7.40;;;0.10;99.90;;;;;;5047421;28;20227;-75
2023/12/07 03:57:23;;;;;;;15.25;7.18;;;0.00;99.90;;;;;;5045461;28;20218;-73
2023/12/07 03:59:52;;;;;;;14.88;7.63;;;-0.10;99.90;;;;;;5048093;28;20314;-74
2023/12/07 04:02:20;;;;;;;14.13;8.30;;;0.00;99.90;;;;;;5043817;28;20229;-74
2023/12/07 04:04:48;;;;;;;19.52;8.32;;;0.00;99.90;;;;;;5047165;28;20235;-73
2023/12/07 04:07:17;;;;;;;20.25;9.52;;;0.10;99.90;;;;;;5041777;28;20203;-72
2023/12/07 04:09:45;;;;;;;14.95;8.13;;;0.10;99.90;;;;;;5039585;28;20227;-74
2023/12/07 04:12:13;;;;;;;15.10;8.27;;;0.10;99.90;;;;;;5047332;28;20955;-75
2023/12/07 04:14:41;;;;;;;15.45;8.18;;;0.00;99.90;;;;;;5056484;28;20236;-74
2023/12/07 04:17:09;;;;;;;14.82;7.57;;;0.00;99.90;;;;;;5038879;28;20231;-77
2023/12/07 04:19:37;;;;;;;17.73;8.65;;;0.00;99.90;;;;;;5048243;28;20319;-73
2023/12/07 04:22:05;;;;;;;18.17;9.55;;;-0.10;99.90;;;;;;5046675;28;20631;-74
2023/12/07 04:24:35;;;;;;;18.58;8.30;;;-0.10;99.90;;;;;;5045329;28;20256;-73
2023/12/07 04:27:03;;;;;;;16.40;9.05;;;-0.20;99.90;;;;;;5047371;28;20219;-74
2023/12/07 04:29:30;;;;;;;14.90;7.75;;;-0.20;99.90;;;;;;5045391;28;20220;-74
2023/12/07 04:31:58;;;;;;;16.65;8.52;;;-0.30;99.90;;;;;;5041149;28;20237;-74
2023/12/07 04:34:26;;;;;;;18.00;8.75;;;-0.40;99.90;;;;;;5042295;28;20233;-73
2023/12/07 04:36:55;;;;;;;19.88;8.77;;;-0.30;99.90;;;;;;5041094;28;20233;-73
2023/12/07 04:39:23;;;;;;;16.25;8.35;;;-0.20;99.90;;;;;;5042596;28;20230;-75
2023/12/07 04:41:52;;;;;;;16.92;8.68;;;-0.30;99.90;;;;;;5039111;28;20279;-71
2023/12/07 04:44:20;;;;;;;18.23;9.18;;;-0.30;99.90;;;;;;5038716;28;20306;-74
2023/12/07 04:46:48;;;;;;;16.73;8.80;;;-0.30;99.90;;;;;;5047056;28;20221;-74
2023/12/07 04:49:16;;;;;;;18.30;8.57;;;-0.40;99.90;;;;;;5045979;28;20901;-73
2023/12/07 04:51:46;;;;;;;16.55;8.25;;;-0.40;99.90;;;;;;5054001;28;20214;-73
2023/12/07 04:54:15;;;;;;;17.67;7.90;;;-0.60;99.90;;;;;;5039520;28;20973;-73
2023/12/07 04:56:47;;;;;;;18.13;9.88;;;-0.70;99.90;;;;;;5039706;28;20210;-73
2023/12/07 04:59:16;;;;;;;15.93;8.60;;;-0.70;99.90;;;;;;5045167;28;20916;-73
2023/12/07 05:01:46;;;;;;;20.02;9.35;;;-0.60;99.90;;;;;;5030625;28;20238;-73
2023/12/07 05:04:14;;;;;;;20.15;9.13;;;-0.60;99.90;;;;;;5041962;28;20221;-74
2023/12/07 05:06:42;;;;;;;16.73;8.82;;;-0.50;99.90;;;;;;5045217;28;20249;-73
2023/12/07 05:09:10;;;;;;;17.08;8.50;;;-0.30;99.90;;;;;;5046132;28;20226;-76
2023/12/07 05:11:38;;;;;;;16.80;9.10;;;-0.30;99.90;;;;;;5045486;28;20892;-73
2023/12/07 05:14:07;;;;;;;18.33;9.68;;;-0.20;99.90;;;;;;5042578;28;20224;-75
2023/12/07 05:16:36;;;;;;;20.20;8.70;;;-0.40;99.90;;;;;;5044931;28;20333;-73
2023/12/07 05:19:04;;;;;;;17.60;9.05;;;-0.50;99.90;;;;;;5041845;28;20192;-76
2023/12/07 05:21:32;;;;;;;17.35;8.00;;;-0.60;99.90;;;;;;5044675;28;20959;-75
2023/12/07 05:24:00;;;;;;;21.40;8.45;;;-0.70;99.90;;;;;;5049820;28;20216;-75
2023/12/07 05:26:29;;;;;;;17.30;8.95;;;-0.60;99.90;;;;;;5045442;28;20241;-76
2023/12/07 05:28:58;;;;;;;19.88;9.00;;;-0.60;99.90;;;;;;5039823;28;20271;-74
2023/12/07 05:31:26;;;;;;;19.35;9.10;;;-0.80;99.90;;;;;;5046597;28;20209;-73
2023/12/07 05:33:56;;;;;;;16.20;8.48;;;-0.80;99.90;;;;;;5045293;28;20228;-74
2023/12/07 05:36:24;;;;;;;18.40;8.90;;;-0.90;99.90;;;;;;5046321;28;20202;-71
2023/12/07 05:38:52;;;;;;;20.10;8.95;;;-0.90;99.90;;;;;;5044861;28;20221;-72
2023/12/07 05:41:20;;;;;;;17.60;9.20;;;-1.00;99.90;;;;;;5043456;28;20201;-71
2023/12/07 05:43:48;;;;;;;20.02;10.02;;;-1.00;99.90;;;;;;5043949;28;20229;-71
2023/12/07 05:46:17;;;;;;;18.63;9.70;;;-0.80;99.90;;;;;;5046241;28;20212;-73
2023/12/07 05:48:45;;;;;;;18.60;10.23;;;-0.70;99.90;;;;;;5046496;28;20202;-75
2023/12/07 05:51:15;;;;;;;21.80;9.20;;;-0.80;99.90;;;;;;5043226;28;20867;-74
2023/12/07 05:53:43;;;;;;;15.85;8.55;;;-0.90;99.90;;;;;;5044849;28;20225;-74
2023/12/07 05:56:11;;;;;;;17.73;8.60;;;-0.90;99.90;;;;;;5044726;28;20580;-75
2023/12/07 05:58:39;;;;;;;17.95;8.82;;;-0.90;99.90;;;;;;5045050;28;20757;-74
2023/12/07 06:01:07;;;;;;;21.85;10.35;;;-1.00;99.90;;;;;;5041042;28;20229;-72
2023/12/07 06:03:36;;;;;;;16.00;8.23;;;-1.00;99.90;;;;;;5052959;28;20311;-74
2023/12/07 06:06:05;;;;;;;19.85;9.90;;;-1.10;99.90;;;;;;5036842;28;20604;-71
2023/12/07 06:08:34;;;;;;;18.52;10.20;;;-1.10;99.90;;;;;;5044187;28;20209;-73
2023/12/07 06:11:02;;;;;;;18.73;8.95;;;-1.10;99.90;;;;;;5042366;28;20229;-73
2023/12/07 06:13:31;;;;;;;18.13;9.20;;;-1.20;99.90;;;;;;5035033;28;20300;-73
2023/12/07 06:15:59;;;;;;;21.20;11.07;;;-1.20;99.90;;;;;;5042118;28;20205;-72
2023/12/07 06:18:27;;;;;;;21.23;9.88;;;-1.10;99.90;;;;;;5045600;28;20281;-73
2023/12/07 06:20:55;;;;;;;19.80;10.68;;;-1.00;99.90;;;;;;5041255;28;20291;-73
2023/12/07 06:23:22;;;;;;;20.45;10.60;;;-0.90;99.90;;;;;;5042391;28;20217;-73
2023/12/07 06:25:51;;;;;;;25.30;10.88;;;-0.80;99.90;;;;;;5045165;28;20278;-73
2023/12/07 06:28:19;;;;;;;18.48;9.77;;;-0.70;99.90;;;;;;5045843;28;20208;-75
2023/12/07 06:30:47;;;;;;;21.38;10.75;;;-0.70;99.90;;;;;;5045499;28;20223;-74
2023/12/07 06:33:15;;;;;;;19.60;10.80;;;-0.70;99.90;;;;;;5042461;28;20282;-73
2023/12/07 06:35:43;;;;;;;21.23;10.80;;;-0.70;99.90;;;;;;5044086;28;20205;-72
2023/12/07 06:38:11;;;;;;;19.52;9.82;;;-0.70;99.90;;;;;;5044733;28;20215;-73
2023/12/07 06:40:39;;;;;;;25.80;12.88;;;-0.70;99.90;;;;;;5044730;28;20313;-74
2023/12/07 06:43:09;;;;;;;20.83;10.13;;;-0.70;99.90;;;;;;5041899;28;20221;-73
2023/12/07 06:45:36;;;;;;;17.42;9.48;;;-0.70;99.90;;;;;;5044014;28;20236;-72
2023/12/07 06:48:05;;;;;;;19.48;10.15;;;-0.80;99.90;;;;;;5044740;28;20263;-74
2023/12/07 06:50:33;;;;;;;21.55;10.07;;;-0.90;99.90;;;;;;5044240;28;20667;-71
2023/12/07 06:53:02;;;;;;;22.38;10.63;;;-1.00;99.90;;;;;;5040991;28;20282;-73
2023/12/07 06:55:30;;;;;;;22.35;11.13;;;-1.10;99.90;;;;;;5044828;28;20235;-71
2023/12/07 06:57:58;;;;;;;26.80;10.30;;;-1.00;99.90;;;;;;5044632;28;20972;-73
2023/12/07 07:00:27;;;;;;;28.10;12.40;;;-1.00;99.90;;;;;;5044920;28;20204;-75
2023/12/07 07:02:55;;;;;;;21.30;10.88;;;-1.00;99.90;;;;;;5042081;28;20225;-71
2023/12/07 07:05:23;;;;;;;20.80;10.25;;;-1.00;99.90;;;;;;5041883;28;20582;-76
2023/12/07 07:07:51;;;;;;;27.08;10.77;;;-1.00;99.90;;;;;;5035983;28;20270;-77
2023/12/07 07:10:19;;;;;;;17.70;9.85;;;-1.00;99.90;;;;;;5047505;28;20205;-75
2023/12/07 07:12:47;;;;;;;20.17;10.27;;;-1.00;99.90;;;;;;5044691;28;20221;-75
2023/12/07 07:15:16;;;;;;;20.23;10.00;;;-1.10;99.90;;;;;;5047013;28;20283;-74
2023/12/07 07:17:45;;;;;;;20.33;10.75;;;-1.20;99.90;;;;;;5047510;28;20209;-72
2023/12/07 07:20:13;;;;;;;19.42;11.27;;;-1.30;99.90;;;;;;5047601;28;20201;-74
2023/12/07 07:22:41;;;;;;;18.63;10.43;;;-1.30;99.90;;;;;;5044474;28;20219;-73
2023/12/07 07:25:10;;;;;;;26.23;11.25;;;-1.30;99.90;;;;;;5046027;28;20229;-72
2023/12/07 07:27:38;;;;;;;21.27;10.65;;;-1.20;99.90;;;;;;5042134;28;20209;-67
2023/12/07 07:30:08;;;;;;;23.70;12.18;;;-1.10;99.90;;;;;;5049286;28;20215;-67
2023/12/07 07:32:36;;;;;;;27.27;11.52;;;-1.00;99.90;;;;;;5050199;28;20315;-69
2023/12/07 07:35:06;;;;;;;21.05;10.45;;;-0.90;99.90;;;;;;5048654;28;20217;-69
2023/12/07 07:37:34;;;;;;;20.92;11.15;;;-0.80;99.90;;;;;;5049056;28;20382;-68
2023/12/07 07:40:06;;;;;;;22.20;11.30;;;-0.80;99.90;;;;;;5049247;28;20214;-68
2023/12/07 07:42:35;;;;;;;26.85;11.98;;;-0.60;99.90;;;;;;5046480;28;20229;-69
2023/12/07 07:45:03;;;;;;;24.02;12.07;;;-0.60;99.90;;;;;;5048210;28;22100;-68
2023/12/07 07:47:30;;;;;;;21.17;11.82;;;-0.50;99.90;;;;;;5048376;28;20878;-68
2023/12/07 07:49:59;;;;;;;26.08;12.07;;;-0.50;99.90;;;;;;5048985;28;20209;-69
2023/12/07 07:52:28;;;;;;;26.13;12.13;;;-0.50;99.90;;;;;;5046739;28;20319;-68
2023/12/07 07:54:56;;;;;;;20.85;12.18;;;-0.50;99.90;;;;;;5048254;28;20702;-68
2023/12/07 07:57:24;;;;;;;23.13;13.18;;;-0.50;99.90;;;;;;5048788;28;20204;-68
2023/12/07 07:59:52;;;;;;;23.67;11.98;;;-0.40;99.90;;;;;;5048994;28;20209;-68
2023/12/07 08:02:21;;;;;;;21.30;10.55;;;-0.40;99.90;;;;;;5048570;28;20370;-68
2023/12/07 08:04:51;;;;;;;21.13;11.77;;;-0.40;99.90;;;;;;5047999;28;20216;-69
2023/12/07 08:07:19;;;;;;;24.90;11.45;;;-0.30;99.90;;;;;;5048653;28;20242;-69
2023/12/07 08:09:48;;;;;;;26.95;11.40;;;-0.20;99.90;;;;;;5048600;28;20217;-69
2023/12/07 08:12:16;;;;;;;24.20;11.27;;;-0.20;99.90;;;;;;5047007;28;20338;-67
2023/12/07 08:14:45;;;;;;;21.73;11.70;;;-0.20;99.90;;;;;;5046044;28;20660;-68
2023/12/07 08:17:13;;;;;;;23.80;12.88;;;-0.20;99.90;;;;;;5047394;28;20726;-68
2023/12/07 08:19:42;;;;;;;22.30;12.20;;;-0.10;99.90;;;;;;5047220;28;20208;-67
2023/12/07 08:22:11;;;;;;;27.55;12.90;;;0.00;99.90;;;;;;5046744;28;20646;-67
2023/12/07 08:24:40;;;;;;;24.48;13.10;;;0.20;99.90;;;;;;5046102;28;20205;-66
2023/12/07 08:27:09;;;;;;;26.52;12.55;;;0.20;99.90;;;;;;5047192;28;20336;-69
2023/12/07 08:29:38;;;;;;;22.55;10.82;;;0.30;99.90;;;;;;5045212;28;20238;-67
2023/12/07 08:32:06;;;;;;;26.98;12.52;;;0.40;99.90;;;;;;5042126;28;20225;-68
2023/12/07 08:34:34;;;;;;;21.30;12.45;;;0.50;99.90;;;;;;5045119;28;20755;-69
2023/12/07 08:37:03;;;;;;;23.85;11.82;;;0.70;99.90;;;;;;5045913;28;20206;-68
2023/12/07 08:39:31;;;;;;;24.08;12.45;;;0.80;99.90;;;;;;5037679;28;20210;-68
2023/12/07 08:41:59;;;;;;;22.10;11.93;;;0.90;99.90;;;;;;5038843;28;20254;-68
2023/12/07 08:44:28;;;;;;;19.17;10.70;;;1.10;99.90;;;;;;5039532;28;20597;-67
2023/12/07 08:46:56;;;;;;;21.95;12.07;;;1.20;99.90;;;;;;5040059;28;20215;-65
2023/12/07 08:49:24;;;;;;;22.23;11.65;;;1.30;99.90;;;;;;5040587;28;21204;-68
2023/12/07 08:51:52;;;;;;;24.05;11.82;;;1.30;99.90;;;;;;5040689;28;20550;-68
2023/12/07 08:54:40;;;;;;;21.20;12.05;;;1.20;99.90;;;;;;5042791;28;20238;-70
2023/12/07 08:57:08;;;;;;;26.17;12.35;;;1.30;99.90;;;;;;5047230;28;20296;-68
2023/12/07 08:59:37;;;;;;;25.60;12.70;;;1.40;99.90;;;;;;5042578;28;20326;-68
2023/12/07 09:02:06;;;;;;;23.13;12.65;;;1.40;99.90;;;;;;5039832;28;20227;-68
2023/12/07 09:04:34;;;;;;;22.17;11.48;;;1.50;99.90;;;;;;5045246;28;20211;-65
2023/12/07 09:07:02;;;;;;;23.30;11.68;;;1.70;99.90;;;;;;5041570;28;20320;-66
2023/12/07 09:09:30;;;;;;;21.03;11.93;;;1.80;99.90;;;;;;5042007;28;20202;-67
2023/12/07 09:11:58;;;;;;;20.17;10.80;;;1.80;99.90;;;;;;5044337;28;20886;-68
2023/12/07 09:14:26;;;;;;;20.80;10.80;;;1.90;99.90;;;;;;5040606;28;20553;-68
2023/12/07 09:16:55;;;;;;;21.37;11.53;;;2.00;99.90;;;;;;5039582;28;20991;-67
2023/12/07 09:19:23;;;;;;;18.50;12.53;;;2.00;99.90;;;;;;5038240;28;21179;-69
2023/12/07 09:21:51;;;;;;;23.40;11.57;;;2.00;99.90;;;;;;5041009;28;20450;-69
2023/12/07 09:24:19;;;;;;;22.50;10.80;;;1.90;99.90;;;;;;5041123;28;20444;-68
2023/12/07 09:26:48;;;;;;;19.80;11.00;;;1.90;99.90;;;;;;5045537;28;20541;-68
2023/12/07 09:29:16;;;;;;;23.37;13.07;;;1.90;99.90;;;;;;5041540;28;20559;-68
2023/12/07 09:31:44;;;;;;;18.20;10.20;;;2.00;99.90;;;;;;5035601;28;20535;-63
2023/12/07 09:34:17;;;;;;;16.67;10.37;;;2.00;99.90;;;;;;5035980;28;20526;-68
2023/12/07 09:36:46;;;;;;;20.97;11.17;;;2.10;99.90;;;;;;5034798;28;20542;-67
2023/12/07 09:39:14;;;;;;;19.77;10.53;;;2.20;99.90;;;;;;5039560;28;20471;-67
2023/12/07 09:41:46;;;;;;;17.57;10.77;;;2.20;99.90;;;;;;5043741;28;20767;-67
2023/12/07 09:44:14;;;;;;;20.57;10.20;;;2.20;99.90;;;;;;5039465;28;20466;-66
2023/12/07 09:46:42;;;;;;;18.27;10.70;;;2.30;99.90;;;;;;5042440;28;20510;-67
2023/12/07 09:49:10;;;;;;;18.70;10.50;;;2.30;99.90;;;;;;5040952;28;20836;-69
2023/12/07 09:51:42;;;;;;;18.53;9.57;;;2.40;99.90;;;;;;5043388;28;20440;-67
2023/12/07 09:54:10;;;;;;;18.50;10.53;;;2.50;99.90;;;;;;5040759;28;20544;-67
2023/12/07 09:56:38;;;;;;;16.97;9.87;;;2.60;99.90;;;;;;5043743;28;20446;-67
2023/12/07 09:59:07;;;;;;;19.40;10.83;;;2.70;99.90;;;;;;5040707;28;20983;-68
2023/12/07 10:01:35;;;;;;;21.70;10.40;;;2.80;99.90;;;;;;5036475;28;20448;-66
2023/12/07 10:04:16;;;;;;;19.50;10.90;;;2.90;99.90;;;;;;5038270;28;21005;-68
2023/12/07 10:06:46;;;;;;;19.03;9.90;;;3.00;99.90;;;;;;5039077;28;20480;-64
2023/12/07 10:09:14;;;;;;;19.23;10.37;;;3.10;99.90;;;;;;5041925;28;21255;-68
2023/12/07 10:12:02;;;;;;;16.43;9.50;;;3.30;99.90;;;;;;5043030;28;20817;-68
2023/12/07 10:14:30;;;;;;;20.13;10.80;;;3.80;99.90;;;;;;5044948;28;20540;-67
2023/12/07 10:16:58;;;;;;;17.73;9.17;;;4.70;99.90;;;;;;5038074;28;20454;-65
2023/12/07 10:19:27;;;;;;;15.33;8.40;;;5.60;99.90;;;;;;5033727;28;20557;-69
2023/12/07 10:22:01;;;;;;;16.27;8.70;;;6.50;99.90;;;;;;5033926;28;20489;-67
2023/12/07 10:24:30;;;;;;;13.97;7.77;;;7.30;99.90;;;;;;5035708;28;20439;-67
2023/12/07 10:26:59;;;;;;;15.10;7.77;;;7.90;99.90;;;;;;5036975;28;20475;-68
2023/12/07 10:29:31;;;;;;;12.90;7.33;;;8.40;99.90;;;;;;5038498;28;20490;-67
2023/12/07 10:32:02;;;;;;;15.50;7.57;;;8.90;99.90;;;;;;5036658;28;20465;-67
2023/12/07 10:34:31;;;;;;;13.53;7.03;;;9.10;99.90;;;;;;5035233;28;20429;-67
2023/12/07 10:37:01;;;;;;;12.40;7.27;;;8.80;99.90;;;;;;5035949;28;21174;-68
2023/12/07 10:39:29;;;;;;;15.63;8.30;;;8.30;99.90;;;;;;5037248;28;20443;-69
2023/12/07 10:42:07;;;;;;;13.67;7.80;;;7.70;99.90;;;;;;5036489;28;20514;-70
2023/12/07 10:44:41;;;;;;;15.00;7.60;;;7.10;99.90;;;;;;5046952;28;20446;-67
2023/12/07 10:47:11;;;;;;;12.30;6.70;;;6.70;99.90;;;;;;5048472;28;20528;-68
2023/12/07 10:49:43;;;;;;;14.10;6.90;;;6.30;99.90;;;;;;5041197;28;20479;-68
2023/12/07 10:52:18;;;;;;;15.70;8.17;;;5.80;99.90;;;;;;5047509;28;20459;-66
2023/12/07 10:54:56;;;;;;;14.70;8.90;;;5.60;99.90;;;;;;5046983;28;20447;-68
2023/12/07 10:57:24;;;;;;;14.70;7.33;;;5.30;99.90;;;;;;5047871;28;20531;-68
2023/12/07 10:59:56;;;;;;;14.03;8.17;;;5.20;99.90;;;;;;5040958;28;20528;-67
2023/12/07 11:02:25;;;;;;;14.87;8.10;;;5.00;99.90;;;;;;5046809;28;21019;-68
2023/12/07 11:04:56;;;;;;;15.07;8.00;;;4.90;99.90;;;;;;5045312;28;20445;-66
2023/12/07 11:07:32;;;;;;;13.27;7.90;;;4.90;99.90;;;;;;5046891;28;20524;-67
2023/12/07 11:10:05;;;;;;;13.57;8.63;;;4.80;99.90;;;;;;5047131;28;20528;-67
2023/12/07 11:12:39;;;;;;;14.40;8.13;;;4.70;99.90;;;;;;5047050;28;21011;-68
2023/12/07 11:15:08;;;;;;;15.03;7.60;;;4.70;99.90;;;;;;5045193;28;21006;-68
2023/12/07 11:17:50;;;;;;;14.23;7.10;;;4.60;99.90;;;;;;5048825;28;20512;-68
2023/12/07 11:20:23;;;;;;;13.67;7.80;;;4.60;99.90;;;;;;5048823;28;20430;-70
2023/12/07 11:22:52;;;;;;;12.40;7.17;;;4.60;99.90;;;;;;5048572;28;20565;-67
2023/12/07 11:25:21;;;;;;;15.83;7.87;;;4.60;99.90;;;;;;5048100;28;20993;-68
2023/12/07 11:28:00;;;;;;;16.20;8.60;;;4.50;99.90;;;;;;5048612;28;20486;-69
2023/12/07 11:30:28;;;;;;;15.13;7.50;;;4.50;99.90;;;;;;5041165;28;20506;-69
2023/12/07 11:32:57;;;;;;;17.40;9.30;;;4.50;99.90;;;;;;5034644;28;20539;-68
2023/12/07 11:35:25;;;;;;;15.77;8.27;;;4.60;99.90;;;;;;5046267;28;20484;-67
2023/12/07 11:38:06;;;;;;;13.37;6.73;;;4.60;99.90;;;;;;5047997;28;20457;-69
2023/12/07 11:40:36;;;;;;;13.63;6.97;;;4.60;99.90;;;;;;5046255;28;20449;-67
2023/12/07 11:43:05;;;;;;;13.47;7.57;;;4.60;99.90;;;;;;5047567;28;20463;-67
2023/12/07 11:45:48;;;;;;;17.33;7.10;;;4.70;99.90;;;;;;5047493;28;20445;-67
2023/12/07 11:48:19;;;;;;;13.87;7.47;;;4.80;99.90;;;;;;5044357;28;20502;-65
2023/12/07 11:51:01;;;;;;;16.70;7.13;;;4.80;99.90;;;;;;5042948;28;20440;-64
2023/12/07 11:53:31;;;;;;;15.17;8.33;;;4.90;99.90;;;;;;5041116;28;20474;-65
2023/12/07 11:56:01;;;;;;;15.00;8.90;;;4.90;99.90;;;;;;5046793;28;20589;-67
2023/12/07 11:58:30;;;;;;;17.50;7.90;;;4.90;99.90;;;;;;5047700;28;21047;-66
2023/12/07 12:01:02;;;;;;;15.13;7.80;;;4.90;99.90;;;;;;5042115;28;20562;-66
2023/12/07 12:03:32;;;;;;;15.73;7.80;;;4.90;99.90;;;;;;5047649;28;20821;-63
2023/12/07 12:06:00;;;;;;;14.90;8.07;;;4.80;99.90;;;;;;5047078;28;20439;-69
2023/12/07 12:08:30;;;;;;;15.60;7.53;;;4.80;99.90;;;;;;5047600;28;20569;-69
2023/12/07 12:10:58;;;;;;;13.63;6.83;;;4.90;99.90;;;;;;5048660;28;20471;-67
2023/12/07 12:13:30;;;;;;;14.30;6.40;;;4.90;99.90;;;;;;5041621;28;20479;-70
2023/12/07 12:15:58;;;;;;;13.40;6.70;;;4.90;99.90;;;;;;5042156;28;20454;-68
2023/12/07 12:18:32;;;;;;;12.20;6.27;;;4.90;99.90;;;;;;5047430;28;20443;-67
2023/12/07 12:21:01;;;;;;;13.93;6.60;;;4.90;99.90;;;;;;5042105;28;20464;-66
2023/12/07 12:23:30;;;;;;;13.50;6.77;;;4.90;99.90;;;;;;5042751;28;20462;-63
2023/12/07 12:25:59;;;;;;;13.13;6.50;;;4.90;99.90;;;;;;5041096;28;20460;-68
2023/12/07 12:28:27;;;;;;;11.67;5.93;;;4.80;99.90;;;;;;5047323;28;20570;-67
2023/12/07 12:30:56;;;;;;;13.47;5.83;;;4.80;99.90;;;;;;5040358;28;20549;-68
2023/12/07 12:33:24;;;;;;;12.10;5.13;;;4.80;99.90;;;;;;5046160;28;20837;-66
2023/12/07 12:36:06;;;;;;;12.10;5.40;;;4.80;99.90;;;;;;5045554;28;20557;-68
2023/12/07 12:38:36;;;;;;;10.87;5.63;;;4.80;99.90;;;;;;5043598;28;20455;-67
2023/12/07 12:41:11;;;;;;;11.10;5.30;;;4.70;99.90;;;;;;5044387;28;20500;-68
2023/12/07 12:43:41;;;;;;;11.37;5.57;;;4.70;99.90;;;;;;5044418;28;20464;-69
2023/12/07 12:46:10;;;;;;;12.87;5.10;;;4.80;99.90;;;;;;5039750;28;20445;-67
2023/12/07 12:48:52;;;;;;;10.10;4.50;;;4.70;99.90;;;;;;5043625;28;20475;-64
2023/12/07 12:51:21;;;;;;;10.10;4.30;;;4.70;99.90;;;;;;5038981;28;20451;-67